Time;durP1;ratioP1;P1;durP2;ratioP2;P2;SDS_P1;SDS_P2;PMS_P1;PMS_P2;Temp;Humidity;BMP_temperature;BMP_pressure;BME280_temperature;BME280_humidity;BME280_pressure;Samples;Min_cycle;Max_cycle;Signal;HPM_P1;HPM_P2
2022/11/03 07:08:52;;;;;;;8.53;6.83;;;;;;;10.89;100.00;99936.69;6017393;23;20293;-87
2022/11/03 07:11:27;;;;;;;8.43;6.60;;;;;;;10.89;100.00;99932.16;6011137;23;20159;-89
2022/11/03 07:14:03;;;;;;;9.40;7.53;;;;;;;10.98;100.00;99922.00;5941020;23;20257;-89
2022/11/03 07:16:39;;;;;;;12.30;7.57;;;;;;;10.95;100.00;99930.50;5987755;23;20187;-90
2022/11/03 07:19:12;;;;;;;9.57;7.57;;;;;;;10.99;100.00;99920.97;5988496;23;20214;-88
2022/11/03 07:21:43;;;;;;;15.73;6.90;;;;;;;10.85;100.00;99909.50;5965774;23;20607;-88
2022/11/03 07:24:16;;;;;;;12.33;6.83;;;;;;;10.73;100.00;99913.09;5997939;23;20170;-87
2022/11/03 07:26:43;;;;;;;12.23;6.37;;;;;;;10.78;100.00;99907.91;5994760;23;20166;-88
2022/11/03 07:29:20;;;;;;;14.10;6.10;;;;;;;10.79;100.00;99909.53;5992545;23;20691;-90
2022/11/03 07:31:48;;;;;;;13.77;6.30;;;;;;;10.83;100.00;99905.38;5988525;23;20166;-90
2022/11/03 07:34:19;;;;;;;17.93;5.80;;;;;;;10.91;100.00;99900.63;5964969;23;20519;-89
2022/11/03 07:36:47;;;;;;;17.47;5.70;;;;;;;10.91;100.00;99887.22;5965675;23;20204;-89
2022/11/03 07:39:21;;;;;;;13.70;5.07;;;;;;;10.94;100.00;99886.78;5944795;23;20253;-90
2022/11/03 07:41:48;;;;;;;8.50;4.70;;;;;;;11.02;100.00;99883.00;5988012;23;20173;-89
2022/11/03 07:44:19;;;;;;;11.23;5.00;;;;;;;11.06;100.00;99888.78;5987768;23;20198;-91
2022/11/03 07:46:47;;;;;;;9.03;4.43;;;;;;;11.14;100.00;99888.50;5987295;23;20215;-93
2022/11/03 07:49:34;;;;;;;8.23;4.17;;;;;;;11.23;100.00;99879.97;5987463;23;20174;-90
2022/11/03 07:52:01;;;;;;;9.07;3.47;;;;;;;11.40;100.00;99878.41;5963814;23;20583;-89
2022/11/03 07:54:29;;;;;;;6.87;3.20;;;;;;;11.52;100.00;99866.97;5986950;23;20196;-89
2022/11/03 07:57:02;;;;;;;5.67;2.47;;;;;;;11.78;100.00;99862.19;5986664;23;20190;-90
2022/11/03 07:59:41;;;;;;;4.60;2.50;;;;;;;12.01;100.00;99844.59;6012535;23;20243;-89
2022/11/03 08:02:28;;;;;;;6.83;2.40;;;;;;;12.28;100.00;99849.44;5987715;23;20548;-89
2022/11/03 08:04:55;;;;;;;3.90;2.10;;;;;;;12.46;100.00;99837.06;5987771;23;20568;-89
2022/11/03 08:07:22;;;;;;;5.53;2.00;;;;;;;12.51;100.00;99838.00;5964492;23;20182;-89
2022/11/03 08:09:48;;;;;;;6.27;2.43;;;;;;;12.53;100.00;99827.03;6010720;23;20299;-90
2022/11/03 08:12:15;;;;;;;5.20;2.23;;;;;;;12.65;100.00;99834.06;5963676;23;20178;-90
2022/11/03 08:14:41;;;;;;;4.20;2.10;;;;;;;12.78;100.00;99836.56;6012033;23;20616;-91
2022/11/03 08:17:08;;;;;;;4.37;2.17;;;;;;;12.95;100.00;99844.81;5963630;23;20192;-92
2022/11/03 08:19:35;;;;;;;6.13;2.60;;;;;;;13.13;100.00;99834.03;6011168;23;20176;-92
2022/11/03 08:22:01;;;;;;;4.63;2.50;;;;;;;13.21;100.00;99835.53;6010921;23;20172;-92
2022/11/03 08:24:28;;;;;;;3.47;1.83;;;;;;;13.40;100.00;99829.03;5964061;23;20246;-90
2022/11/03 08:26:54;;;;;;;4.87;1.90;;;;;;;13.61;100.00;99825.78;6009354;23;20178;-90
2022/11/03 08:29:21;;;;;;;4.43;2.40;;;;;;;13.65;100.00;99816.16;6011127;23;20164;-91
2022/11/03 08:31:48;;;;;;;4.07;2.13;;;;;;;13.80;100.00;99813.00;6010658;23;20616;-90
2022/11/03 08:34:14;;;;;;;5.13;2.00;;;;;;;13.95;100.00;99802.53;5986401;23;20181;-92
2022/11/03 08:36:41;;;;;;;5.30;1.90;;;;;;;13.99;100.00;99797.50;5986776;23;20631;-91
2022/11/03 08:39:08;;;;;;;3.87;1.67;;;;;;;13.99;100.00;99792.94;5963320;23;20212;-91
2022/11/03 08:41:34;;;;;;;4.37;1.83;;;;;;;14.08;100.00;99793.38;5986483;23;20168;-92
2022/11/03 08:44:01;;;;;;;4.40;1.87;;;;;;;14.13;100.00;99787.28;5963195;23;20188;-91
2022/11/03 08:46:28;;;;;;;9.70;4.17;;;;;;;14.21;100.00;99790.41;5985757;23;20263;-90
2022/11/03 08:48:54;;;;;;;5.00;2.20;;;;;;;14.29;100.00;99781.94;5962551;23;20178;-91
2022/11/03 08:51:21;;;;;;;5.47;2.03;;;;;;;14.40;100.00;99777.59;5986155;23;20172;-91
2022/11/03 08:53:51;;;;;;;4.23;2.00;;;;;;;14.50;100.00;99784.03;5985783;23;20181;-89
2022/11/03 08:56:18;;;;;;;6.70;2.13;;;;;;;14.66;100.00;99777.00;5986111;23;20166;-90
2022/11/03 08:58:48;;;;;;;3.23;1.70;;;;;;;14.74;100.00;99779.34;5985373;23;20194;-91
2022/11/03 09:01:14;;;;;;;4.63;1.77;;;;;;;14.88;100.00;99772.53;6011136;23;20158;-92
2022/11/03 09:03:41;;;;;;;9.47;2.80;;;;;;;14.97;100.00;99773.78;6010783;23;20174;-93
2022/11/03 09:06:08;;;;;;;7.00;2.10;;;;;;;14.92;100.00;99760.22;6011326;23;20688;-91
2022/11/03 09:08:35;;;;;;;4.80;2.50;;;;;;;14.98;100.00;99751.13;5981493;23;20203;-93
2022/11/03 09:11:22;;;;;;;8.17;2.20;;;;;;;15.11;100.00;99752.69;5981731;23;20176;-90
2022/11/03 09:13:48;;;;;;;6.43;2.40;;;;;;;15.12;100.00;99740.81;5958091;24;20201;-89
2022/11/03 09:16:15;;;;;;;5.67;1.90;;;;;;;15.25;100.00;99737.00;5982674;23;20170;-91
2022/11/03 09:18:43;;;;;;;3.47;1.60;;;;;;;15.29;100.00;99732.72;5958167;24;20199;-91
2022/11/03 09:21:09;;;;;;;5.67;2.03;;;;;;;15.26;100.00;99733.19;5958877;23;20159;-92
2022/11/03 09:23:36;;;;;;;4.23;1.90;;;;;;;15.34;100.00;99730.91;5981382;24;20163;-89
2022/11/03 09:26:04;;;;;;;10.30;2.97;;;;;;;15.42;100.00;99726.97;5982859;23;20174;-91
2022/11/03 09:28:31;;;;;;;4.60;2.17;;;;;;;15.42;100.00;99721.56;5982509;23;20250;-91
2022/11/03 09:30:58;;;;;;;5.93;2.30;;;;;;;15.43;100.00;99712.41;5981308;24;20172;-90
2022/11/03 09:33:24;;;;;;;6.23;2.30;;;;;;;15.53;100.00;99709.06;5981236;24;20183;-92
2022/11/03 09:35:51;;;;;;;6.90;2.43;;;;;;;15.58;100.00;99707.25;6004428;23;20222;-91
2022/11/03 09:38:17;;;;;;;3.43;2.10;;;;;;;15.61;100.00;99703.22;5981837;23;20197;-91
2022/11/03 09:40:44;;;;;;;4.00;2.17;;;;;;;15.65;100.00;99707.88;5981620;24;20182;-90
2022/11/03 09:43:11;;;;;;;3.77;2.03;;;;;;;15.83;100.00;99707.56;5958313;24;20175;-92
2022/11/03 09:45:38;;;;;;;6.37;2.20;;;;;;;15.80;100.00;99705.38;5981292;24;20186;-91
2022/11/03 09:48:08;;;;;;;4.33;1.90;;;;;;;15.96;100.00;99692.06;5980476;24;20167;-93
2022/11/03 09:50:35;;;;;;;5.90;1.97;;;;;;;15.95;100.00;99695.81;5981387;24;20160;-92
2022/11/03 09:53:02;;;;;;;5.13;2.07;;;;;;;16.03;100.00;99692.66;5981523;24;20174;-91
2022/11/03 09:55:29;;;;;;;7.57;2.20;;;;;;;15.98;100.00;99679.91;5981329;24;20173;-91
2022/11/03 09:57:58;;;;;;;4.13;2.10;;;;;;;16.04;100.00;99670.78;5982425;23;20179;-91
2022/11/03 10:00:26;;;;;;;4.57;2.07;;;;;;;16.16;100.00;99673.34;5981186;24;20246;-91
2022/11/03 10:02:53;;;;;;;6.30;1.87;;;;;;;16.09;100.00;99665.44;5958165;24;20540;-89
2022/11/03 10:05:25;;;;;;;7.90;2.20;;;;;;;16.11;100.00;99659.75;5958220;24;20179;-91
2022/11/03 10:07:55;;;;;;;5.03;2.03;;;;;;;16.08;100.00;99652.19;5980458;24;20567;-91
2022/11/03 10:10:22;;;;;;;4.33;2.00;;;;;;;16.19;100.00;99648.50;5957958;24;20188;-90
2022/11/03 10:12:51;;;;;;;5.40;2.20;;;;;;;16.24;100.00;99646.66;6004049;23;20167;-91
2022/11/03 10:15:20;;;;;;;4.83;2.37;;;;;;;16.28;100.00;99638.88;5981845;24;20251;-90
2022/11/03 10:17:49;;;;;;;4.43;2.00;;;;;;;16.40;100.00;99635.97;5958057;24;20306;-91
2022/11/03 10:20:20;;;;;;;3.60;1.93;;;;;;;16.45;100.00;99630.63;5982666;23;20204;-91
2022/11/03 10:22:51;;;;;;;5.90;2.20;;;;;;;16.45;100.00;99627.91;5981500;24;20163;-91
2022/11/03 10:25:43;;;;;;;4.47;1.90;;;;;;;16.50;100.00;99630.66;5981139;24;20179;-92
2022/11/03 10:28:23;;;;;;;4.10;2.13;;;;;;;16.48;100.00;99622.81;5980968;24;20267;-90
2022/11/03 10:30:50;;;;;;;4.63;2.10;;;;;;;16.60;100.00;99611.84;5981168;24;20171;-92
2022/11/03 10:33:50;;;;;;;5.33;2.33;;;;;;;16.77;100.00;99607.09;5980836;23;20198;-89
2022/11/03 10:36:16;;;;;;;3.40;1.90;;;;;;;16.86;100.00;99608.25;5981606;24;20231;-89
2022/11/03 10:38:43;;;;;;;5.60;2.50;;;;;;;16.94;100.00;99598.81;5983318;24;20218;-89
2022/11/03 10:41:14;;;;;;;3.70;1.80;;;;;;;16.91;100.00;99594.75;5958146;24;20185;-89
2022/11/03 10:43:43;;;;;;;4.50;2.00;;;;;;;16.89;100.00;99582.56;5981569;23;20170;-90
2022/11/03 10:46:21;;;;;;;6.90;2.10;;;;;;;16.91;100.00;99581.22;5981390;24;20173;-89
2022/11/03 10:49:13;;;;;;;5.87;2.10;;;;;;;17.00;100.00;99585.06;5962003;24;20191;-87
2022/11/03 10:51:41;;;;;;;5.57;1.83;;;;;;;17.08;100.00;99587.25;5982539;23;20171;-89
2022/11/03 10:54:11;;;;;;;6.47;2.30;;;;;;;17.08;100.00;99570.19;5981076;24;20168;-89
2022/11/03 10:56:37;;;;;;;4.77;2.00;;;;;;;17.17;100.00;99565.91;5958076;24;20183;-89
2022/11/03 10:59:04;;;;;;;5.47;2.03;;;;;;;17.21;100.00;99564.31;5981048;24;20183;-89
2022/11/03 11:01:31;;;;;;;3.70;2.03;;;;;;;17.26;100.00;99558.94;5980992;24;20177;-90
2022/11/03 11:03:58;;;;;;;4.90;1.83;;;;;;;17.27;100.00;99552.41;5982177;24;20163;-90
2022/11/03 11:06:27;;;;;;;4.33;2.10;;;;;;;17.35;100.00;99551.09;5980985;24;20557;-89
2022/11/03 11:08:59;;;;;;;5.03;2.37;;;;;;;17.49;100.00;99546.81;5980566;23;20203;-90
2022/11/03 11:11:26;;;;;;;3.30;2.00;;;;;;;17.66;100.00;99549.31;5980933;24;20176;-89
2022/11/03 11:14:24;;;;;;;4.13;1.90;;;;;;;17.71;100.00;99539.31;5957390;24;20171;-90
2022/11/03 11:16:57;;;;;;;4.00;1.77;;;;;;;17.74;99.74;99540.66;5980977;24;20163;-88
2022/11/03 11:19:26;;;;;;;4.23;1.70;;;;;;;17.87;97.80;99524.69;5957486;24;20282;-88
2022/11/03 11:21:53;;;;;;;3.90;1.77;;;;;;;17.90;98.08;99512.50;5980386;24;20221;-88
2022/11/03 11:24:42;;;;;;;3.20;1.67;;;;;;;18.08;96.77;99513.88;5982011;24;20167;-88
2022/11/03 11:27:31;;;;;;;5.10;1.83;;;;;;;18.11;95.84;99516.03;5981632;23;20232;-88
2022/11/03 11:29:59;;;;;;;6.80;2.33;;;;;;;18.20;94.56;99508.97;5982007;24;20221;-88
2022/11/03 11:32:38;;;;;;;3.17;1.80;;;;;;;18.26;94.24;99492.44;5981374;24;20168;-88
2022/11/03 11:35:09;;;;;;;4.73;1.90;;;;;;;18.31;92.19;99483.47;5982553;24;20175;-90
2022/11/03 11:37:37;;;;;;;3.60;1.93;;;;;;;18.28;91.77;99476.72;5982402;24;20641;-90
2022/11/03 11:40:27;;;;;;;3.60;2.07;;;;;;;18.16;90.59;99470.75;5959696;24;20197;-88
2022/11/03 11:43:10;;;;;;;4.43;1.90;;;;;;;18.33;90.59;99459.63;5959289;24;20609;-89
2022/11/03 11:46:14;;;;;;;3.30;1.77;;;;;;;18.27;89.62;99452.56;5982356;24;20170;-89
2022/11/03 11:48:41;;;;;;;3.83;2.20;;;;;;;18.26;88.86;99451.75;5982433;24;20309;-88
2022/11/03 11:51:09;;;;;;;5.30;2.20;;;;;;;18.25;88.92;99444.72;5959450;24;20179;-89
2022/11/03 11:53:41;;;;;;;4.30;2.10;;;;;;;18.34;88.88;99431.41;5982549;24;20171;-88
2022/11/03 11:56:10;;;;;;;4.63;2.20;;;;;;;18.38;88.91;99424.34;5959262;24;20172;-88
2022/11/03 11:58:55;;;;;;;4.87;2.40;;;;;;;18.38;88.98;99422.44;5982257;23;20195;-88
2022/11/03 12:01:29;;;;;;;5.40;2.50;;;;;;;18.42;89.38;99430.84;6005561;23;20155;-88
2022/11/03 12:03:58;;;;;;;3.90;2.57;;;;;;;18.39;89.83;99421.34;5982003;24;20168;-90
2022/11/03 12:06:36;;;;;;;3.77;2.60;;;;;;;18.42;90.14;99412.69;5959060;24;20167;-88
2022/11/03 12:09:04;;;;;;;5.37;2.60;;;;;;;18.34;90.32;99412.41;6002393;23;20190;-88
2022/11/03 12:11:46;;;;;;;5.93;2.77;;;;;;;18.28;90.73;99395.38;6009991;23;20629;-88
2022/11/03 12:14:24;;;;;;;5.27;2.80;;;;;;;18.23;91.60;99399.97;5986268;23;20479;-88
2022/11/03 12:16:52;;;;;;;7.57;3.10;;;;;;;18.23;92.23;99394.56;6011202;23;20244;-88
2022/11/03 12:19:41;;;;;;;4.90;3.50;;;;;;;18.35;92.10;99390.44;5963297;23;20199;-88
2022/11/03 12:22:19;;;;;;;3.90;3.23;;;;;;;18.22;92.62;99379.38;5986787;23;20206;-89
2022/11/03 12:24:50;;;;;;;5.00;3.50;;;;;;;18.07;93.89;99379.41;5987004;23;20190;-88
2022/11/03 12:27:23;;;;;;;4.53;3.30;;;;;;;18.15;94.24;99382.34;5986132;23;20587;-88
2022/11/03 12:29:58;;;;;;;4.43;3.17;;;;;;;18.16;94.29;99373.16;6011262;23;20616;-88
2022/11/03 12:32:25;;;;;;;7.73;3.63;;;;;;;18.15;94.87;99370.72;6011467;23;20165;-86
2022/11/03 12:35:01;;;;;;;6.87;3.40;;;;;;;18.16;95.32;99370.44;5986947;23;20201;-88
2022/11/03 12:37:28;;;;;;;6.43;3.10;;;;;;;18.24;95.51;99360.94;5963910;23;20635;-88
2022/11/03 12:39:54;;;;;;;4.53;3.20;;;;;;;18.38;95.38;99357.34;5964365;23;20179;-89
2022/11/03 12:42:23;;;;;;;4.53;3.67;;;;;;;18.40;95.69;99348.94;5986423;23;20166;-86
2022/11/03 12:44:50;;;;;;;6.67;3.37;;;;;;;18.44;95.22;99350.00;6011220;23;20167;-86
2022/11/03 12:47:18;;;;;;;4.73;3.50;;;;;;;18.46;95.73;99340.50;6006046;23;20170;-84
2022/11/03 12:49:45;;;;;;;5.30;3.77;;;;;;;18.48;95.65;99343.75;6006319;23;20171;-86
2022/11/03 12:52:11;;;;;;;6.93;3.90;;;;;;;18.47;96.39;99335.91;6009325;23;20174;-86
2022/11/03 12:54:38;;;;;;;4.83;3.50;;;;;;;18.56;96.31;99339.69;6009194;23;20184;-85
2022/11/03 12:57:05;;;;;;;5.80;3.63;;;;;;;18.62;95.83;99330.41;6010599;23;20167;-85
2022/11/03 12:59:31;;;;;;;5.60;3.60;;;;;;;18.58;95.85;99331.25;6010012;23;20182;-84
2022/11/03 13:01:58;;;;;;;5.27;3.93;;;;;;;18.51;95.70;99320.69;5985564;23;20167;-88
2022/11/03 13:04:25;;;;;;;3.50;3.13;;;;;;;18.60;95.92;99318.22;5985640;23;20171;-89
2022/11/03 13:06:51;;;;;;;4.63;3.90;;;;;;;18.57;95.79;99295.16;5987255;23;20616;-88
2022/11/03 13:09:18;;;;;;;4.20;3.80;;;;;;;18.54;95.24;99294.91;5986689;23;20211;-88
2022/11/03 13:14:37;;;;;;;5.90;3.37;;;;;;;18.26;95.93;99304.50;5979653;23;20175;-89
2022/11/03 13:17:06;;;;;;;4.50;3.03;;;;;;;18.36;95.71;99294.44;5965240;23;20191;-89
2022/11/03 13:19:33;;;;;;;4.93;3.40;;;;;;;18.37;96.26;99297.97;5987140;23;20214;-88
2022/11/03 13:22:00;;;;;;;5.10;3.00;;;;;;;18.25;96.61;99286.63;5987322;23;20179;-87
2022/11/03 13:24:26;;;;;;;4.27;3.10;;;;;;;18.22;97.73;99292.59;5987070;23;20257;-88
2022/11/03 13:26:53;;;;;;;5.47;3.20;;;;;;;18.27;96.59;99292.59;5963874;23;20159;-88
2022/11/03 13:29:19;;;;;;;5.83;3.23;;;;;;;18.34;96.78;99296.59;5963855;23;20179;-88
2022/11/03 13:31:46;;;;;;;3.87;3.20;;;;;;;18.29;96.67;99290.44;5964020;23;20167;-88
2022/11/03 13:34:13;;;;;;;5.07;3.13;;;;;;;18.24;97.55;99287.72;5963423;23;20164;-89
2022/11/03 13:36:39;;;;;;;4.93;3.27;;;;;;;18.29;96.93;99293.13;5985556;23;20177;-90
2022/11/03 13:39:06;;;;;;;7.40;3.33;;;;;;;18.21;97.36;99275.53;5985342;23;20190;-89
2022/11/03 13:41:32;;;;;;;3.93;3.37;;;;;;;18.24;97.76;99269.56;5963200;23;20186;-89
2022/11/03 13:43:59;;;;;;;5.47;3.77;;;;;;;18.22;97.92;99276.34;5986603;23;20716;-88
2022/11/03 13:46:26;;;;;;;4.83;3.43;;;;;;;18.15;98.15;99265.78;5964245;23;20179;-88
2022/11/03 13:48:52;;;;;;;7.00;3.33;;;;;;;18.20;98.34;99263.03;5986766;23;20178;-88
2022/11/03 13:51:39;;;;;;;4.50;3.67;;;;;;;18.07;98.46;99271.78;5970138;23;20159;-88
2022/11/03 13:54:06;;;;;;;6.03;3.13;;;;;;;18.03;98.45;99260.69;5962559;23;20201;-89
2022/11/03 13:56:52;;;;;;;5.87;3.27;;;;;;;17.94;98.43;99254.22;6009991;23;20181;-88
2022/11/03 13:59:39;;;;;;;5.17;3.53;;;;;;;17.85;99.20;99255.06;5986438;23;20200;-88
2022/11/03 14:02:06;;;;;;;5.70;3.50;;;;;;;17.83;99.38;99263.47;5986722;23;20166;-89
2022/11/03 14:04:52;;;;;;;4.47;3.30;;;;;;;17.67;100.00;99258.38;5966215;23;20181;-88
2022/11/03 14:07:19;;;;;;;5.20;3.70;;;;;;;17.57;100.00;99261.88;5987099;23;20167;-89
2022/11/03 14:09:46;;;;;;;3.70;3.30;;;;;;;17.56;100.00;99247.53;5986324;23;20727;-89
2022/11/03 14:12:31;;;;;;;4.87;3.33;;;;;;;17.47;100.00;99249.16;5986315;23;20215;-89
2022/11/03 14:14:59;;;;;;;5.77;3.80;;;;;;;17.39;100.00;99238.06;5986494;23;20233;-89
2022/11/03 14:17:26;;;;;;;6.70;3.80;;;;;;;17.31;100.00;99247.53;5986579;23;20172;-88
2022/11/03 14:19:53;;;;;;;4.93;3.47;;;;;;;17.18;100.00;99231.84;5986598;23;20190;-87
2022/11/03 14:22:29;;;;;;;7.37;4.20;;;;;;;17.07;100.00;99233.78;5988497;23;20249;-88
2022/11/03 14:24:56;;;;;;;24.57;12.10;;;;;;;16.96;100.00;99234.03;5987043;23;20162;-88
2022/11/03 14:27:22;;;;;;;7.00;4.70;;;;;;;16.93;100.00;99237.31;6009867;23;20174;-87
2022/11/03 14:29:49;;;;;;;5.43;3.87;;;;;;;16.92;100.00;99241.06;5985483;23;20179;-89
2022/11/03 14:32:17;;;;;;;6.23;4.70;;;;;;;16.90;100.00;99233.22;6006576;23;20292;-89
2022/11/03 14:34:43;;;;;;;7.07;3.80;;;;;;;16.75;100.00;99227.78;6007606;23;20559;-90
2022/11/03 14:37:11;;;;;;;6.50;3.97;;;;;;;16.62;100.00;99242.66;6010774;23;20162;-89
2022/11/03 14:39:39;;;;;;;6.13;4.10;;;;;;;16.63;100.00;99235.38;5986011;23;20186;-90
2022/11/03 14:42:13;;;;;;;4.43;4.03;;;;;;;16.58;100.00;99235.34;5985620;23;20182;-89
2022/11/03 14:44:41;;;;;;;6.17;4.00;;;;;;;16.44;100.00;99235.03;5962764;23;20249;-89
2022/11/03 14:47:10;;;;;;;6.93;3.73;;;;;;;16.41;100.00;99240.97;6010139;23;20162;-89
2022/11/03 14:49:37;;;;;;;6.27;4.50;;;;;;;16.29;100.00;99227.69;5985841;23;20179;-89
2022/11/03 14:52:06;;;;;;;5.63;4.43;;;;;;;16.20;100.00;99223.06;5985732;23;20171;-90
2022/11/03 14:54:33;;;;;;;6.37;4.57;;;;;;;16.33;100.00;99222.56;6009072;23;20714;-88
2022/11/03 14:57:00;;;;;;;8.70;5.73;;;;;;;16.19;100.00;99208.72;6008954;23;20170;-88
2022/11/03 14:59:27;;;;;;;6.10;4.90;;;;;;;16.20;100.00;99214.97;6009854;23;20225;-88
2022/11/03 15:01:54;;;;;;;7.67;5.80;;;;;;;16.20;100.00;99212.25;5985723;23;20166;-89
2022/11/03 15:04:21;;;;;;;14.90;9.20;;;;;;;15.94;100.00;99210.56;5985406;23;20294;-89
2022/11/03 15:06:48;;;;;;;19.77;12.00;;;;;;;15.97;100.00;99212.72;6010643;23;20265;-89
2022/11/03 15:09:15;;;;;;;12.87;9.23;;;;;;;15.86;100.00;99212.66;5963905;23;20202;-89
2022/11/03 15:11:43;;;;;;;7.87;5.43;;;;;;;15.91;100.00;99219.19;5987488;23;20218;-90
2022/11/03 15:14:10;;;;;;;9.70;5.87;;;;;;;15.70;100.00;99216.41;5987453;23;20185;-92
2022/11/03 15:16:37;;;;;;;6.43;4.90;;;;;;;15.61;100.00;99209.88;5964780;23;20213;-88
2022/11/03 15:19:05;;;;;;;8.77;6.90;;;;;;;15.62;100.00;99216.09;6012659;23;20639;-89
2022/11/03 15:21:32;;;;;;;8.37;6.90;;;;;;;15.55;100.00;99212.78;5965294;23;20194;-90
2022/11/03 15:23:59;;;;;;;8.70;6.73;;;;;;;15.41;100.00;99215.94;5988179;23;20203;-89
2022/11/03 15:26:45;;;;;;;13.83;10.27;;;;;;;15.35;100.00;99216.19;5973263;23;20167;-88
2022/11/03 15:29:12;;;;;;;16.20;12.60;;;;;;;15.16;100.00;99202.28;5987273;23;20181;-89
2022/11/03 15:31:39;;;;;;;17.43;9.93;;;;;;;15.08;100.00;99204.63;5964528;23;20283;-89
2022/11/03 15:34:12;;;;;;;14.17;10.70;;;;;;;14.99;100.00;99202.41;5987187;23;20177;-89
2022/11/03 15:36:39;;;;;;;11.30;9.43;;;;;;;14.95;100.00;99197.78;6012239;23;20173;-89
2022/11/03 15:39:06;;;;;;;10.23;8.00;;;;;;;14.91;100.00;99186.72;5964681;23;20301;-90
2022/11/03 15:41:32;;;;;;;9.13;6.80;;;;;;;14.90;100.00;99179.69;5987889;23;20167;-89
2022/11/03 15:43:59;;;;;;;6.63;5.00;;;;;;;14.71;100.00;99173.06;5964569;23;20170;-92
2022/11/03 15:46:26;;;;;;;8.80;5.70;;;;;;;14.62;100.00;99158.44;5964279;23;20200;-89
2022/11/03 15:48:55;;;;;;;7.83;5.17;;;;;;;14.65;100.00;99144.44;5964128;23;20174;-90
2022/11/03 15:51:22;;;;;;;6.40;5.77;;;;;;;14.55;100.00;99144.38;6010760;23;20246;-89
2022/11/03 15:53:48;;;;;;;8.07;5.57;;;;;;;14.60;100.00;99135.50;5964266;23;20174;-90
2022/11/03 15:56:23;;;;;;;9.30;6.87;;;;;;;14.43;100.00;99120.25;6010829;23;20604;-90
2022/11/03 15:58:50;;;;;;;7.70;6.03;;;;;;;14.45;100.00;99115.44;5964153;23;20190;-90
2022/11/03 16:01:16;;;;;;;8.27;5.30;;;;;;;14.41;100.00;99106.25;5964235;23;20230;-89
2022/11/03 16:03:43;;;;;;;8.93;6.10;;;;;;;14.29;100.00;99104.75;5986239;23;20190;-90
2022/11/03 16:06:10;;;;;;;7.43;5.57;;;;;;;14.28;100.00;99116.59;5963052;23;20179;-90
2022/11/03 16:08:37;;;;;;;10.90;5.20;;;;;;;14.21;100.00;99108.72;5963907;23;20200;-90
2022/11/03 16:11:04;;;;;;;5.97;4.80;;;;;;;14.22;100.00;99123.84;5963776;23;20245;-87
2022/11/03 16:13:30;;;;;;;6.20;5.60;;;;;;;14.18;100.00;99125.41;6011706;23;20174;-88
2022/11/03 16:15:57;;;;;;;10.20;8.03;;;;;;;14.03;100.00;99123.38;5964780;23;20247;-89
2022/11/03 16:18:24;;;;;;;8.27;6.60;;;;;;;14.19;100.00;99116.25;5987382;23;20174;-90
2022/11/03 16:20:50;;;;;;;7.80;6.97;;;;;;;14.09;100.00;99108.09;5964710;23;20166;-88
2022/11/03 16:23:17;;;;;;;8.60;6.80;;;;;;;14.17;100.00;99110.31;5986989;23;20181;-90
2022/11/03 16:25:44;;;;;;;8.37;5.77;;;;;;;14.06;100.00;99106.69;5963913;23;20182;-90
2022/11/03 16:28:10;;;;;;;10.77;8.50;;;;;;;14.03;100.00;99106.41;5986657;23;20176;-90
2022/11/03 16:30:37;;;;;;;13.57;11.87;;;;;;;14.01;100.00;99103.13;5986992;23;20175;-90
2022/11/03 16:33:04;;;;;;;11.77;8.83;;;;;;;13.98;100.00;99093.69;5964086;23;20177;-89
2022/11/03 16:35:31;;;;;;;15.63;11.20;;;;;;;13.86;100.00;99094.91;5987021;23;20555;-90
2022/11/03 16:37:58;;;;;;;6.97;6.20;;;;;;;13.88;100.00;99090.09;5986766;23;20177;-89
2022/11/03 16:40:24;;;;;;;10.77;5.30;;;;;;;13.90;100.00;99088.78;5963470;23;20204;-91
2022/11/03 16:42:51;;;;;;;7.60;5.30;;;;;;;13.85;100.00;99088.72;5964321;23;20476;-89
2022/11/03 16:45:24;;;;;;;10.07;7.10;;;;;;;13.90;100.00;99087.97;6011932;23;20170;-89
2022/11/03 16:47:51;;;;;;;11.23;8.40;;;;;;;13.76;100.00;99073.28;6010757;23;20603;-88
2022/11/03 16:50:18;;;;;;;8.27;6.13;;;;;;;13.80;100.00;99079.78;5963637;23;20186;-88
2022/11/03 16:52:46;;;;;;;8.70;6.63;;;;;;;13.73;100.00;99077.28;6010915;23;20166;-88
2022/11/03 16:55:13;;;;;;;7.17;6.17;;;;;;;13.68;100.00;99078.03;5987033;23;20558;-89
2022/11/03 16:57:40;;;;;;;8.57;6.33;;;;;;;13.77;100.00;99064.91;6011274;23;20174;-87
2022/11/03 17:00:13;;;;;;;8.10;5.87;;;;;;;13.67;100.00;99062.13;5987216;23;20281;-89
2022/11/03 17:02:40;;;;;;;8.33;5.77;;;;;;;13.75;100.00;99058.19;5964235;23;20167;-91
2022/11/03 17:05:08;;;;;;;8.10;5.60;;;;;;;13.76;100.00;99060.63;5987122;23;20176;-88
2022/11/03 17:07:35;;;;;;;9.57;6.90;;;;;;;13.92;100.00;99051.63;5986651;23;20177;-89
2022/11/03 17:10:03;;;;;;;6.50;5.63;;;;;;;14.00;100.00;99047.63;5987266;23;20201;-86
2022/11/03 17:12:29;;;;;;;7.47;6.17;;;;;;;13.95;100.00;99048.41;5986084;23;20645;-81
2022/11/03 17:14:56;;;;;;;7.77;6.40;;;;;;;13.91;100.00;99047.28;6010647;23;20505;-82
2022/11/03 17:17:23;;;;;;;10.33;7.03;;;;;;;14.00;100.00;99053.84;5986061;23;20201;-82
2022/11/03 17:19:50;;;;;;;9.33;6.70;;;;;;;14.01;100.00;99044.69;6010325;23;20687;-82
2022/11/03 17:22:17;;;;;;;10.23;6.20;;;;;;;14.11;100.00;99052.06;6010785;23;20168;-82
2022/11/03 17:24:43;;;;;;;10.20;6.70;;;;;;;14.03;100.00;99050.66;6010495;23;20175;-82
2022/11/03 17:27:22;;;;;;;8.87;6.53;;;;;;;14.02;100.00;99043.63;6010790;23;20229;-81
2022/11/03 17:29:53;;;;;;;10.07;6.80;;;;;;;13.88;100.00;99026.28;6010352;23;20166;-82
2022/11/03 17:32:25;;;;;;;7.07;5.90;;;;;;;14.04;100.00;99024.53;5985945;23;20169;-81
2022/11/03 17:34:52;;;;;;;9.73;6.43;;;;;;;14.04;100.00;99014.53;6010645;23;20248;-82
2022/11/03 17:37:19;;;;;;;7.70;5.73;;;;;;;14.04;100.00;99019.94;5985731;23;20170;-82
2022/11/03 17:39:45;;;;;;;8.43;5.90;;;;;;;13.99;100.00;99022.63;6010233;23;20234;-82
2022/11/03 17:42:15;;;;;;;7.83;5.80;;;;;;;14.09;100.00;99025.38;5986106;23;20228;-82
2022/11/03 17:44:43;;;;;;;7.43;6.20;;;;;;;14.04;100.00;99019.94;5985750;23;20166;-81
2022/11/03 17:47:10;;;;;;;12.13;8.47;;;;;;;13.97;100.00;99022.03;6010184;23;20556;-82
2022/11/03 17:49:36;;;;;;;10.57;5.60;;;;;;;13.97;100.00;99018.53;6009978;23;20206;-84
2022/11/03 17:52:03;;;;;;;8.20;5.63;;;;;;;13.97;100.00;99016.66;6010284;23;20164;-82
2022/11/03 17:54:30;;;;;;;7.30;5.50;;;;;;;14.00;100.00;99013.44;6009949;23;20173;-82
2022/11/03 17:56:58;;;;;;;5.57;4.97;;;;;;;14.01;100.00;99015.06;6010037;23;20164;-82
2022/11/03 17:59:25;;;;;;;6.73;4.60;;;;;;;14.14;100.00;99013.81;5985090;23;20279;-81
2022/11/03 18:01:52;;;;;;;5.67;5.03;;;;;;;14.04;100.00;99014.53;5985669;23;20649;-82
2022/11/03 18:04:19;;;;;;;7.17;4.87;;;;;;;13.90;100.00;98999.91;6010498;23;20227;-82
2022/11/03 18:06:46;;;;;;;6.87;5.27;;;;;;;13.98;100.00;99004.81;5985305;23;20173;-81
2022/11/03 18:09:12;;;;;;;6.93;5.40;;;;;;;13.96;100.00;98998.06;6009616;23;20208;-82
2022/11/03 18:14:26;;;;;;;8.80;5.93;;;;;;;13.89;100.00;98987.50;6009772;23;20478;-84
2022/11/03 18:16:53;;;;;;;8.87;6.57;;;;;;;13.89;100.00;98987.50;5985485;23;20165;-85
2022/11/03 18:19:20;;;;;;;7.00;6.30;;;;;;;13.94;100.00;98990.25;6009905;23;20189;-83
2022/11/03 18:21:47;;;;;;;6.93;6.23;;;;;;;13.75;100.00;98969.34;6010086;23;20167;-83
2022/11/03 18:24:16;;;;;;;11.07;9.83;;;;;;;13.90;100.00;98972.97;6009818;23;20199;-84
2022/11/03 18:26:43;;;;;;;13.13;8.47;;;;;;;13.90;100.00;98972.16;5985230;23;20221;-84
2022/11/03 18:29:09;;;;;;;14.27;10.50;;;;;;;13.95;100.00;98954.16;6009743;23;20177;-84
2022/11/03 18:31:40;;;;;;;11.97;8.67;;;;;;;13.82;100.00;98959.97;5985661;23;20174;-83
2022/11/03 18:34:25;;;;;;;12.13;8.83;;;;;;;13.90;100.00;98943.38;5985854;23;20212;-83
2022/11/03 18:36:53;;;;;;;11.87;7.60;;;;;;;13.89;100.00;98944.44;5986041;23;20168;-84
2022/11/03 18:39:26;;;;;;;7.20;5.97;;;;;;;13.85;100.00;98934.44;6009858;23;20623;-84
2022/11/03 18:41:53;;;;;;;9.17;7.23;;;;;;;13.83;100.00;98934.69;5988598;23;20173;-85
2022/11/03 18:44:23;;;;;;;9.57;7.03;;;;;;;13.84;100.00;98920.16;5988461;23;20170;-84
2022/11/03 18:46:51;;;;;;;10.27;6.73;;;;;;;13.74;100.00;98917.38;6013416;23;20226;-87
2022/11/03 18:49:18;;;;;;;9.33;6.43;;;;;;;13.73;100.00;98928.38;6012970;23;20163;-84
2022/11/03 18:51:50;;;;;;;8.13;6.20;;;;;;;13.77;100.00;98922.22;5988918;23;20175;-81